sensor_id;sensor_type;location;lat;lon;timestamp;temperature;humidity
70550;DHT22;58101;48.658;2.328;2023-05-10T00:00:14;11.90;99.90
70550;DHT22;58101;48.658;2.328;2023-05-10T00:02:43;11.70;99.90
70550;DHT22;58101;48.658;2.328;2023-05-10T00:05:11;11.60;99.90
70550;DHT22;58101;48.658;2.328;2023-05-10T00:07:37;11.60;99.90
70550;DHT22;58101;48.658;2.328;2023-05-10T00:10:02;11.60;99.90
70550;DHT22;58101;48.658;2.328;2023-05-10T00:12:28;11.40;99.90
70550;DHT22;58101;48.658;2.328;2023-05-10T00:14:54;11.40;99.90
70550;DHT22;58101;48.658;2.328;2023-05-10T00:17:19;11.40;99.90
70550;DHT22;58101;48.658;2.328;2023-05-10T00:19:45;11.50;99.90
70550;DHT22;58101;48.658;2.328;2023-05-10T00:22:11;11.30;99.90
70550;DHT22;58101;48.658;2.328;2023-05-10T00:24:37;11.30;99.90
70550;DHT22;58101;48.658;2.328;2023-05-10T00:27:02;11.30;99.90
70550;DHT22;58101;48.658;2.328;2023-05-10T00:29:29;11.20;99.90
70550;DHT22;58101;48.658;2.328;2023-05-10T00:31:55;11.20;99.90
70550;DHT22;58101;48.658;2.328;2023-05-10T00:34:22;11.20;99.90
70550;DHT22;58101;48.658;2.328;2023-05-10T00:36:47;11.20;99.90
70550;DHT22;58101;48.658;2.328;2023-05-10T00:39:13;11.20;99.90
70550;DHT22;58101;48.658;2.328;2023-05-10T00:41:38;11.10;99.90
70550;DHT22;58101;48.658;2.328;2023-05-10T00:44:04;11.20;99.90
70550;DHT22;58101;48.658;2.328;2023-05-10T00:46:30;11.20;99.90
70550;DHT22;58101;48.658;2.328;2023-05-10T00:48:56;11.20;99.90
70550;DHT22;58101;48.658;2.328;2023-05-10T00:51:22;11.20;99.90
70550;DHT22;58101;48.658;2.328;2023-05-10T00:53:48;11.20;99.90
70550;DHT22;58101;48.658;2.328;2023-05-10T00:56:15;11.10;99.90
70550;DHT22;58101;48.658;2.328;2023-05-10T00:58:44;11.20;99.90
70550;DHT22;58101;48.658;2.328;2023-05-10T01:01:10;11.20;99.90
70550;DHT22;58101;48.658;2.328;2023-05-10T01:03:37;11.20;99.90
70550;DHT22;58101;48.658;2.328;2023-05-10T01:06:02;11.20;99.90
70550;DHT22;58101;48.658;2.328;2023-05-10T01:08:28;11.10;99.90
70550;DHT22;58101;48.658;2.328;2023-05-10T01:10:54;11.00;99.90
70550;DHT22;58101;48.658;2.328;2023-05-10T01:13:37;11.10;99.90
70550;DHT22;58101;48.658;2.328;2023-05-10T01:16:04;11.20;99.90
70550;DHT22;58101;48.658;2.328;2023-05-10T01:18:40;11.10;99.90
70550;DHT22;58101;48.658;2.328;2023-05-10T01:24:32;11.10;99.90
70550;DHT22;58101;48.658;2.328;2023-05-10T01:30:28;11.00;99.90
70550;DHT22;58101;48.658;2.328;2023-05-10T01:33:07;11.10;99.90
70550;DHT22;58101;48.658;2.328;2023-05-10T01:35:51;11.00;99.90
70550;DHT22;58101;48.658;2.328;2023-05-10T01:38:42;11.00;99.90
70550;DHT22;58101;48.658;2.328;2023-05-10T01:41:17;11.00;99.90
70550;DHT22;58101;48.658;2.328;2023-05-10T01:46:35;11.00;99.90
70550;DHT22;58101;48.658;2.328;2023-05-10T01:49:07;11.00;99.90
70550;DHT22;58101;48.658;2.328;2023-05-10T01:51:45;10.90;99.90
70550;DHT22;58101;48.658;2.328;2023-05-10T01:54:13;10.90;99.90
70550;DHT22;58101;48.658;2.328;2023-05-10T01:56:40;10.90;99.90
70550;DHT22;58101;48.658;2.328;2023-05-10T01:59:12;10.90;99.90
70550;DHT22;58101;48.658;2.328;2023-05-10T02:01:40;10.90;99.90
70550;DHT22;58101;48.658;2.328;2023-05-10T02:04:07;10.90;99.90
70550;DHT22;58101;48.658;2.328;2023-05-10T02:06:35;10.90;99.90
70550;DHT22;58101;48.658;2.328;2023-05-10T02:09:03;10.90;99.90
70550;DHT22;58101;48.658;2.328;2023-05-10T02:11:29;10.90;99.90
70550;DHT22;58101;48.658;2.328;2023-05-10T02:13:56;10.90;99.90
70550;DHT22;58101;48.658;2.328;2023-05-10T02:16:26;10.90;99.90
70550;DHT22;58101;48.658;2.328;2023-05-10T02:18:54;10.80;99.90
70550;DHT22;58101;48.658;2.328;2023-05-10T02:21:21;10.90;99.90
70550;DHT22;58101;48.658;2.328;2023-05-10T02:23:49;10.90;99.90
70550;DHT22;58101;48.658;2.328;2023-05-10T02:26:17;10.90;99.90
70550;DHT22;58101;48.658;2.328;2023-05-10T02:28:44;10.90;99.90
70550;DHT22;58101;48.658;2.328;2023-05-10T02:31:10;10.90;99.90
70550;DHT22;58101;48.658;2.328;2023-05-10T02:33:38;10.90;99.90
70550;DHT22;58101;48.658;2.328;2023-05-10T02:36:07;10.90;99.90
70550;DHT22;58101;48.658;2.328;2023-05-10T02:38:34;11.00;99.90
70550;DHT22;58101;48.658;2.328;2023-05-10T02:41:02;11.00;99.90
70550;DHT22;58101;48.658;2.328;2023-05-10T02:43:30;10.90;99.90
70550;DHT22;58101;48.658;2.328;2023-05-10T02:45:57;10.90;99.90
70550;DHT22;58101;48.658;2.328;2023-05-10T02:48:23;11.00;99.90
70550;DHT22;58101;48.658;2.328;2023-05-10T02:50:50;10.90;99.90
70550;DHT22;58101;48.658;2.328;2023-05-10T02:53:31;11.00;99.90
70550;DHT22;58101;48.658;2.328;2023-05-10T02:55:59;11.00;99.90
70550;DHT22;58101;48.658;2.328;2023-05-10T02:58:26;11.00;99.90
70550;DHT22;58101;48.658;2.328;2023-05-10T03:00:52;11.00;99.90
70550;DHT22;58101;48.658;2.328;2023-05-10T03:03:18;11.00;99.90
70550;DHT22;58101;48.658;2.328;2023-05-10T03:06:08;11.00;99.90
70550;DHT22;58101;48.658;2.328;2023-05-10T03:08:34;11.00;99.90
70550;DHT22;58101;48.658;2.328;2023-05-10T03:11:09;11.00;99.90
70550;DHT22;58101;48.658;2.328;2023-05-10T03:14:17;11.00;99.90
70550;DHT22;58101;48.658;2.328;2023-05-10T03:17:00;11.00;99.90
70550;DHT22;58101;48.658;2.328;2023-05-10T03:19:55;11.00;99.90
70550;DHT22;58101;48.658;2.328;2023-05-10T03:22:30;10.90;99.90
70550;DHT22;58101;48.658;2.328;2023-05-10T03:24:56;10.90;99.90
70550;DHT22;58101;48.658;2.328;2023-05-10T03:27:28;10.90;99.90
70550;DHT22;58101;48.658;2.328;2023-05-10T03:29:55;10.90;99.90
70550;DHT22;58101;48.658;2.328;2023-05-10T03:32:22;10.90;99.90
70550;DHT22;58101;48.658;2.328;2023-05-10T03:34:48;10.90;99.90
70550;DHT22;58101;48.658;2.328;2023-05-10T03:37:17;10.90;99.90
70550;DHT22;58101;48.658;2.328;2023-05-10T03:39:42;10.90;99.90
70550;DHT22;58101;48.658;2.328;2023-05-10T03:42:08;10.80;99.90
70550;DHT22;58101;48.658;2.328;2023-05-10T03:44:38;10.80;99.90
70550;DHT22;58101;48.658;2.328;2023-05-10T03:47:04;10.80;99.90
70550;DHT22;58101;48.658;2.328;2023-05-10T03:49:29;10.90;99.90
70550;DHT22;58101;48.658;2.328;2023-05-10T03:51:55;10.90;99.90
70550;DHT22;58101;48.658;2.328;2023-05-10T03:54:21;10.90;99.90
70550;DHT22;58101;48.658;2.328;2023-05-10T03:56:46;10.90;99.90
70550;DHT22;58101;48.658;2.328;2023-05-10T03:59:13;10.90;99.90
70550;DHT22;58101;48.658;2.328;2023-05-10T04:01:39;10.90;99.90
70550;DHT22;58101;48.658;2.328;2023-05-10T04:04:05;10.80;99.90
70550;DHT22;58101;48.658;2.328;2023-05-10T04:06:30;10.80;99.90
70550;DHT22;58101;48.658;2.328;2023-05-10T04:08:57;10.80;99.90
70550;DHT22;58101;48.658;2.328;2023-05-10T04:11:25;10.90;99.90
70550;DHT22;58101;48.658;2.328;2023-05-10T04:13:51;10.80;99.90
70550;DHT22;58101;48.658;2.328;2023-05-10T04:16:17;10.70;99.90
70550;DHT22;58101;48.658;2.328;2023-05-10T04:18:42;10.70;99.90
70550;DHT22;58101;48.658;2.328;2023-05-10T04:21:12;10.70;99.90
70550;DHT22;58101;48.658;2.328;2023-05-10T04:23:41;10.90;99.90
70550;DHT22;58101;48.658;2.328;2023-05-10T04:26:07;10.70;99.90
70550;DHT22;58101;48.658;2.328;2023-05-10T04:28:33;10.70;99.90
70550;DHT22;58101;48.658;2.328;2023-05-10T04:31:09;10.70;99.90
70550;DHT22;58101;48.658;2.328;2023-05-10T04:33:36;10.80;99.90
70550;DHT22;58101;48.658;2.328;2023-05-10T04:36:03;10.80;99.90
70550;DHT22;58101;48.658;2.328;2023-05-10T04:38:29;10.80;99.90
70550;DHT22;58101;48.658;2.328;2023-05-10T04:41:09;10.80;99.90
70550;DHT22;58101;48.658;2.328;2023-05-10T04:43:35;10.80;99.90
70550;DHT22;58101;48.658;2.328;2023-05-10T04:46:00;10.80;99.90
70550;DHT22;58101;48.658;2.328;2023-05-10T04:48:26;10.80;99.90
70550;DHT22;58101;48.658;2.328;2023-05-10T04:50:52;10.90;99.90
70550;DHT22;58101;48.658;2.328;2023-05-10T04:53:17;10.80;99.90
70550;DHT22;58101;48.658;2.328;2023-05-10T04:55:43;10.80;99.90
70550;DHT22;58101;48.658;2.328;2023-05-10T04:58:09;10.80;99.90
70550;DHT22;58101;48.658;2.328;2023-05-10T05:00:34;10.80;99.90
70550;DHT22;58101;48.658;2.328;2023-05-10T05:03:00;10.80;99.90
70550;DHT22;58101;48.658;2.328;2023-05-10T05:05:26;10.80;99.90
70550;DHT22;58101;48.658;2.328;2023-05-10T05:07:52;10.80;99.90
70550;DHT22;58101;48.658;2.328;2023-05-10T05:10:17;10.80;99.90
70550;DHT22;58101;48.658;2.328;2023-05-10T05:12:43;10.80;99.90
70550;DHT22;58101;48.658;2.328;2023-05-10T05:15:32;10.90;99.90
70550;DHT22;58101;48.658;2.328;2023-05-10T05:17:58;10.90;99.90
70550;DHT22;58101;48.658;2.328;2023-05-10T05:20:23;10.80;99.90
70550;DHT22;58101;48.658;2.328;2023-05-10T05:22:49;10.90;99.90
70550;DHT22;58101;48.658;2.328;2023-05-10T05:25:15;10.90;99.90
70550;DHT22;58101;48.658;2.328;2023-05-10T05:27:41;10.90;99.90
70550;DHT22;58101;48.658;2.328;2023-05-10T05:30:07;10.90;99.90
70550;DHT22;58101;48.658;2.328;2023-05-10T05:32:33;10.90;99.90
70550;DHT22;58101;48.658;2.328;2023-05-10T05:34:59;10.90;99.90
70550;DHT22;58101;48.658;2.328;2023-05-10T05:37:25;10.90;99.90
70550;DHT22;58101;48.658;2.328;2023-05-10T05:39:51;10.90;99.90
70550;DHT22;58101;48.658;2.328;2023-05-10T05:42:17;10.90;99.90
70550;DHT22;58101;48.658;2.328;2023-05-10T05:44:44;11.00;99.90
70550;DHT22;58101;48.658;2.328;2023-05-10T05:47:10;10.90;99.90
70550;DHT22;58101;48.658;2.328;2023-05-10T05:49:36;11.10;99.90
70550;DHT22;58101;48.658;2.328;2023-05-10T05:52:03;11.00;99.90
70550;DHT22;58101;48.658;2.328;2023-05-10T05:54:29;11.00;99.90
70550;DHT22;58101;48.658;2.328;2023-05-10T05:57:01;11.10;99.90
70550;DHT22;58101;48.658;2.328;2023-05-10T05:59:29;11.10;99.90
70550;DHT22;58101;48.658;2.328;2023-05-10T06:01:55;11.30;99.90
70550;DHT22;58101;48.658;2.328;2023-05-10T06:04:21;11.20;99.90
70550;DHT22;58101;48.658;2.328;2023-05-10T06:06:46;11.20;99.90
70550;DHT22;58101;48.658;2.328;2023-05-10T06:09:12;11.30;99.90
70550;DHT22;58101;48.658;2.328;2023-05-10T06:11:38;11.40;99.90
70550;DHT22;58101;48.658;2.328;2023-05-10T06:14:04;11.50;99.90
70550;DHT22;58101;48.658;2.328;2023-05-10T06:16:32;11.40;99.90
70550;DHT22;58101;48.658;2.328;2023-05-10T06:18:58;11.50;99.90
70550;DHT22;58101;48.658;2.328;2023-05-10T06:21:23;11.50;99.90
70550;DHT22;58101;48.658;2.328;2023-05-10T06:23:49;11.50;99.90
70550;DHT22;58101;48.658;2.328;2023-05-10T06:26:15;11.50;99.90
70550;DHT22;58101;48.658;2.328;2023-05-10T06:28:43;11.50;99.90
70550;DHT22;58101;48.658;2.328;2023-05-10T06:31:09;11.50;99.90
70550;DHT22;58101;48.658;2.328;2023-05-10T06:33:36;11.60;99.90
70550;DHT22;58101;48.658;2.328;2023-05-10T06:36:02;11.50;99.90
70550;DHT22;58101;48.658;2.328;2023-05-10T06:38:28;11.50;99.90
70550;DHT22;58101;48.658;2.328;2023-05-10T06:40:54;11.50;99.90
70550;DHT22;58101;48.658;2.328;2023-05-10T06:43:19;11.60;99.90
70550;DHT22;58101;48.658;2.328;2023-05-10T06:45:57;11.60;99.90
70550;DHT22;58101;48.658;2.328;2023-05-10T06:48:23;11.60;99.90
70550;DHT22;58101;48.658;2.328;2023-05-10T06:50:49;11.60;99.90
70550;DHT22;58101;48.658;2.328;2023-05-10T06:53:15;11.70;99.90
70550;DHT22;58101;48.658;2.328;2023-05-10T06:55:41;11.70;99.90
70550;DHT22;58101;48.658;2.328;2023-05-10T07:00:54;11.70;99.90
70550;DHT22;58101;48.658;2.328;2023-05-10T07:03:40;11.70;99.90
70550;DHT22;58101;48.658;2.328;2023-05-10T07:06:05;11.70;99.90
70550;DHT22;58101;48.658;2.328;2023-05-10T07:08:34;11.80;99.90
70550;DHT22;58101;48.658;2.328;2023-05-10T07:11:09;11.90;99.90
70550;DHT22;58101;48.658;2.328;2023-05-10T07:13:35;11.90;99.90
70550;DHT22;58101;48.658;2.328;2023-05-10T07:16:02;12.10;99.90
70550;DHT22;58101;48.658;2.328;2023-05-10T07:18:28;12.10;99.90
70550;DHT22;58101;48.658;2.328;2023-05-10T07:20:54;12.00;99.90
70550;DHT22;58101;48.658;2.328;2023-05-10T07:23:22;12.10;99.90
70550;DHT22;58101;48.658;2.328;2023-05-10T07:25:49;12.10;99.90
70550;DHT22;58101;48.658;2.328;2023-05-10T07:28:17;12.20;99.90
70550;DHT22;58101;48.658;2.328;2023-05-10T07:30:43;12.30;99.90
70550;DHT22;58101;48.658;2.328;2023-05-10T07:33:09;12.30;99.90
70550;DHT22;58101;48.658;2.328;2023-05-10T07:35:35;12.40;99.90
70550;DHT22;58101;48.658;2.328;2023-05-10T07:38:01;12.40;99.90
70550;DHT22;58101;48.658;2.328;2023-05-10T07:40:28;12.50;99.90
70550;DHT22;58101;48.658;2.328;2023-05-10T07:42:54;12.50;99.90
70550;DHT22;58101;48.658;2.328;2023-05-10T07:45:19;12.50;99.90
70550;DHT22;58101;48.658;2.328;2023-05-10T07:47:45;12.70;99.90
70550;DHT22;58101;48.658;2.328;2023-05-10T07:50:13;12.60;99.90
70550;DHT22;58101;48.658;2.328;2023-05-10T07:52:39;12.60;99.90
70550;DHT22;58101;48.658;2.328;2023-05-10T07:55:05;12.70;99.90
70550;DHT22;58101;48.658;2.328;2023-05-10T07:57:33;12.80;99.90
70550;DHT22;58101;48.658;2.328;2023-05-10T07:59:58;13.00;99.90
70550;DHT22;58101;48.658;2.328;2023-05-10T08:02:24;13.10;99.90
70550;DHT22;58101;48.658;2.328;2023-05-10T08:04:50;13.20;99.90
70550;DHT22;58101;48.658;2.328;2023-05-10T08:07:17;13.20;99.90
70550;DHT22;58101;48.658;2.328;2023-05-10T08:09:43;13.30;99.90
70550;DHT22;58101;48.658;2.328;2023-05-10T08:12:08;13.30;99.90
70550;DHT22;58101;48.658;2.328;2023-05-10T08:14:40;13.30;99.90
70550;DHT22;58101;48.658;2.328;2023-05-10T08:17:06;13.30;99.90
70550;DHT22;58101;48.658;2.328;2023-05-10T08:19:31;13.20;99.90
70550;DHT22;58101;48.658;2.328;2023-05-10T08:21:57;13.20;99.90
70550;DHT22;58101;48.658;2.328;2023-05-10T08:24:23;13.20;99.90
70550;DHT22;58101;48.658;2.328;2023-05-10T08:26:48;13.20;99.90
70550;DHT22;58101;48.658;2.328;2023-05-10T08:29:15;13.20;99.90
70550;DHT22;58101;48.658;2.328;2023-05-10T08:31:40;13.30;99.90
70550;DHT22;58101;48.658;2.328;2023-05-10T08:37:30;13.60;99.90
70550;DHT22;58101;48.658;2.328;2023-05-10T08:39:57;13.70;99.90
70550;DHT22;58101;48.658;2.328;2023-05-10T08:42:25;13.70;99.90
70550;DHT22;58101;48.658;2.328;2023-05-10T08:44:54;13.80;99.90
70550;DHT22;58101;48.658;2.328;2023-05-10T08:47:35;13.90;99.90
70550;DHT22;58101;48.658;2.328;2023-05-10T08:50:02;13.90;99.90
70550;DHT22;58101;48.658;2.328;2023-05-10T08:52:53;14.00;99.90
70550;DHT22;58101;48.658;2.328;2023-05-10T08:55:21;14.00;99.90
70550;DHT22;58101;48.658;2.328;2023-05-10T08:57:49;14.00;99.90
70550;DHT22;58101;48.658;2.328;2023-05-10T09:00:15;14.00;99.90
70550;DHT22;58101;48.658;2.328;2023-05-10T09:02:43;14.10;99.90
70550;DHT22;58101;48.658;2.328;2023-05-10T09:05:09;14.20;99.90
70550;DHT22;58101;48.658;2.328;2023-05-10T09:07:36;14.40;99.90
70550;DHT22;58101;48.658;2.328;2023-05-10T09:10:02;14.50;99.90
70550;DHT22;58101;48.658;2.328;2023-05-10T09:12:31;14.60;99.90
70550;DHT22;58101;48.658;2.328;2023-05-10T09:14:59;14.70;99.90
70550;DHT22;58101;48.658;2.328;2023-05-10T09:17:25;14.90;99.90
70550;DHT22;58101;48.658;2.328;2023-05-10T09:20:03;14.90;99.90
70550;DHT22;58101;48.658;2.328;2023-05-10T09:22:33;14.90;99.90
70550;DHT22;58101;48.658;2.328;2023-05-10T09:25:13;14.90;99.90
70550;DHT22;58101;48.658;2.328;2023-05-10T09:27:41;14.80;99.90
70550;DHT22;58101;48.658;2.328;2023-05-10T11:02:44;15.40;99.90
70550;DHT22;58101;48.658;2.328;2023-05-10T11:07:59;15.80;99.90
70550;DHT22;58101;48.658;2.328;2023-05-10T11:10:26;16.00;99.90
70550;DHT22;58101;48.658;2.328;2023-05-10T11:13:09;16.00;99.90
70550;DHT22;58101;48.658;2.328;2023-05-10T11:15:39;16.10;99.90
70550;DHT22;58101;48.658;2.328;2023-05-10T11:18:24;16.10;99.90
70550;DHT22;58101;48.658;2.328;2023-05-10T11:21:00;16.20;99.90
70550;DHT22;58101;48.658;2.328;2023-05-10T11:23:32;16.30;99.90
70550;DHT22;58101;48.658;2.328;2023-05-10T11:26:01;16.30;99.90
70550;DHT22;58101;48.658;2.328;2023-05-10T11:28:27;16.40;99.90
70550;DHT22;58101;48.658;2.328;2023-05-10T11:30:54;16.60;99.90
70550;DHT22;58101;48.658;2.328;2023-05-10T11:33:20;16.80;99.90
70550;DHT22;58101;48.658;2.328;2023-05-10T11:35:46;17.10;99.90
70550;DHT22;58101;48.658;2.328;2023-05-10T11:38:12;17.30;99.90
70550;DHT22;58101;48.658;2.328;2023-05-10T11:40:38;17.40;99.90
70550;DHT22;58101;48.658;2.328;2023-05-10T11:43:04;17.70;99.90
70550;DHT22;58101;48.658;2.328;2023-05-10T11:45:43;18.00;99.90
70550;DHT22;58101;48.658;2.328;2023-05-10T11:48:10;18.10;97.50
70550;DHT22;58101;48.658;2.328;2023-05-10T11:50:36;18.40;99.90
70550;DHT22;58101;48.658;2.328;2023-05-10T11:53:01;18.40;95.30
70550;DHT22;58101;48.658;2.328;2023-05-10T11:55:27;18.60;96.50
70550;DHT22;58101;48.658;2.328;2023-05-10T11:57:59;18.80;97.20
70550;DHT22;58101;48.658;2.328;2023-05-10T12:00:31;18.90;96.30
70550;DHT22;58101;48.658;2.328;2023-05-10T12:02:57;19.00;88.20
70550;DHT22;58101;48.658;2.328;2023-05-10T12:05:23;19.00;90.90
70550;DHT22;58101;48.658;2.328;2023-05-10T12:07:49;19.00;92.00
70550;DHT22;58101;48.658;2.328;2023-05-10T12:10:15;19.20;92.80
70550;DHT22;58101;48.658;2.328;2023-05-10T12:12:48;19.30;92.40
70550;DHT22;58101;48.658;2.328;2023-05-10T12:15:24;19.60;91.40
70550;DHT22;58101;48.658;2.328;2023-05-10T12:20:53;20.20;91.10
70550;DHT22;58101;48.658;2.328;2023-05-10T12:23:20;20.50;84.30
70550;DHT22;58101;48.658;2.328;2023-05-10T12:26:12;20.60;78.30
70550;DHT22;58101;48.658;2.328;2023-05-10T12:28:47;20.70;78.10
70550;DHT22;58101;48.658;2.328;2023-05-10T12:31:12;20.80;78.50
70550;DHT22;58101;48.658;2.328;2023-05-10T12:33:40;20.70;75.60
70550;DHT22;58101;48.658;2.328;2023-05-10T12:36:14;20.20;71.10
70550;DHT22;58101;48.658;2.328;2023-05-10T12:38:41;19.80;70.30
70550;DHT22;58101;48.658;2.328;2023-05-10T12:41:10;19.30;72.30
70550;DHT22;58101;48.658;2.328;2023-05-10T19:02:45;14.60;99.90
70550;DHT22;58101;48.658;2.328;2023-05-10T19:05:13;14.60;99.90
70550;DHT22;58101;48.658;2.328;2023-05-10T19:07:39;14.50;99.90
70550;DHT22;58101;48.658;2.328;2023-05-10T19:10:11;14.50;99.90
70550;DHT22;58101;48.658;2.328;2023-05-10T19:12:38;14.50;99.90
70550;DHT22;58101;48.658;2.328;2023-05-10T19:15:06;14.40;99.90
70550;DHT22;58101;48.658;2.328;2023-05-10T19:17:34;14.40;99.90
70550;DHT22;58101;48.658;2.328;2023-05-10T19:20:20;14.30;99.90
70550;DHT22;58101;48.658;2.328;2023-05-10T19:22:45;14.30;99.90
70550;DHT22;58101;48.658;2.328;2023-05-10T19:25:14;14.30;99.90
70550;DHT22;58101;48.658;2.328;2023-05-10T19:27:43;14.30;99.90
70550;DHT22;58101;48.658;2.328;2023-05-10T19:30:09;14.30;99.90
70550;DHT22;58101;48.658;2.328;2023-05-10T19:32:35;14.30;99.90
70550;DHT22;58101;48.658;2.328;2023-05-10T19:35:01;14.20;99.90
70550;DHT22;58101;48.658;2.328;2023-05-10T19:37:26;14.20;99.90
70550;DHT22;58101;48.658;2.328;2023-05-10T19:39:52;14.20;99.90
70550;DHT22;58101;48.658;2.328;2023-05-10T19:42:19;14.20;99.90
70550;DHT22;58101;48.658;2.328;2023-05-10T19:44:44;14.20;99.90
70550;DHT22;58101;48.658;2.328;2023-05-10T19:47:10;14.20;99.90
70550;DHT22;58101;48.658;2.328;2023-05-10T19:49:36;14.20;99.90
70550;DHT22;58101;48.658;2.328;2023-05-10T19:52:03;14.10;99.90
70550;DHT22;58101;48.658;2.328;2023-05-10T19:54:29;14.10;99.90
70550;DHT22;58101;48.658;2.328;2023-05-10T19:56:55;14.10;99.90
70550;DHT22;58101;48.658;2.328;2023-05-10T19:59:20;14.10;99.90
70550;DHT22;58101;48.658;2.328;2023-05-10T20:01:46;14.10;99.90
70550;DHT22;58101;48.658;2.328;2023-05-10T20:04:12;14.10;99.90
70550;DHT22;58101;48.658;2.328;2023-05-10T20:06:37;14.10;99.90
70550;DHT22;58101;48.658;2.328;2023-05-10T20:09:03;14.10;99.90
70550;DHT22;58101;48.658;2.328;2023-05-10T20:11:29;14.00;99.90
70550;DHT22;58101;48.658;2.328;2023-05-10T20:13:55;14.00;99.90
70550;DHT22;58101;48.658;2.328;2023-05-10T20:16:21;13.90;99.90
70550;DHT22;58101;48.658;2.328;2023-05-10T20:18:47;13.90;99.90
70550;DHT22;58101;48.658;2.328;2023-05-10T20:21:12;13.90;99.90
70550;DHT22;58101;48.658;2.328;2023-05-10T20:23:38;13.90;99.90
70550;DHT22;58101;48.658;2.328;2023-05-10T20:26:04;13.80;99.90
70550;DHT22;58101;48.658;2.328;2023-05-10T20:28:30;13.80;99.90
70550;DHT22;58101;48.658;2.328;2023-05-10T20:30:56;13.80;99.90
70550;DHT22;58101;48.658;2.328;2023-05-10T20:33:23;13.80;99.90
70550;DHT22;58101;48.658;2.328;2023-05-10T20:35:49;13.80;99.90
70550;DHT22;58101;48.658;2.328;2023-05-10T20:38:15;13.70;99.90
70550;DHT22;58101;48.658;2.328;2023-05-10T20:40:42;13.60;99.90
70550;DHT22;58101;48.658;2.328;2023-05-10T20:43:08;13.50;99.90
70550;DHT22;58101;48.658;2.328;2023-05-10T20:45:35;13.60;99.90
70550;DHT22;58101;48.658;2.328;2023-05-10T20:48:01;13.50;99.90
70550;DHT22;58101;48.658;2.328;2023-05-10T20:50:27;13.50;99.90
70550;DHT22;58101;48.658;2.328;2023-05-10T20:52:53;13.40;99.90
70550;DHT22;58101;48.658;2.328;2023-05-10T20:55:19;13.40;99.90
70550;DHT22;58101;48.658;2.328;2023-05-10T20:58:15;13.30;99.90
70550;DHT22;58101;48.658;2.328;2023-05-10T21:00:41;13.40;99.90
70550;DHT22;58101;48.658;2.328;2023-05-10T21:03:06;13.30;99.90
70550;DHT22;58101;48.658;2.328;2023-05-10T21:05:32;13.30;99.90
70550;DHT22;58101;48.658;2.328;2023-05-10T21:07:57;13.30;99.90
70550;DHT22;58101;48.658;2.328;2023-05-10T21:10:24;13.40;99.90
70550;DHT22;58101;48.658;2.328;2023-05-10T21:12:53;13.30;99.90
70550;DHT22;58101;48.658;2.328;2023-05-10T21:15:19;13.20;99.90
70550;DHT22;58101;48.658;2.328;2023-05-10T21:17:48;13.20;99.90
70550;DHT22;58101;48.658;2.328;2023-05-10T21:20:13;13.20;99.90
70550;DHT22;58101;48.658;2.328;2023-05-10T21:22:39;13.30;99.90
70550;DHT22;58101;48.658;2.328;2023-05-10T21:25:05;13.30;99.90
70550;DHT22;58101;48.658;2.328;2023-05-10T21:27:31;13.30;99.90
70550;DHT22;58101;48.658;2.328;2023-05-10T21:29:56;13.20;99.90
70550;DHT22;58101;48.658;2.328;2023-05-10T21:32:22;13.30;99.90
70550;DHT22;58101;48.658;2.328;2023-05-10T21:34:47;13.20;99.90
70550;DHT22;58101;48.658;2.328;2023-05-10T21:37:14;13.20;99.90
70550;DHT22;58101;48.658;2.328;2023-05-10T21:39:43;13.30;99.90
70550;DHT22;58101;48.658;2.328;2023-05-10T21:42:09;13.20;99.90
70550;DHT22;58101;48.658;2.328;2023-05-10T21:44:34;13.20;99.90
70550;DHT22;58101;48.658;2.328;2023-05-10T21:47:00;13.30;99.90
70550;DHT22;58101;48.658;2.328;2023-05-10T21:49:26;13.30;99.90
70550;DHT22;58101;48.658;2.328;2023-05-10T21:51:52;13.20;99.90
70550;DHT22;58101;48.658;2.328;2023-05-10T21:54:17;13.20;99.90
70550;DHT22;58101;48.658;2.328;2023-05-10T21:56:43;13.20;99.90
70550;DHT22;58101;48.658;2.328;2023-05-10T21:59:09;13.20;99.90
70550;DHT22;58101;48.658;2.328;2023-05-10T22:01:34;13.20;99.90
70550;DHT22;58101;48.658;2.328;2023-05-10T22:04:03;13.20;99.90
70550;DHT22;58101;48.658;2.328;2023-05-10T22:06:29;13.10;99.90
70550;DHT22;58101;48.658;2.328;2023-05-10T22:08:55;13.20;99.90
70550;DHT22;58101;48.658;2.328;2023-05-10T22:11:20;13.10;99.90
70550;DHT22;58101;48.658;2.328;2023-05-10T22:13:46;13.20;99.90
70550;DHT22;58101;48.658;2.328;2023-05-10T22:16:14;13.20;99.90
70550;DHT22;58101;48.658;2.328;2023-05-10T22:18:40;13.20;99.90
70550;DHT22;58101;48.658;2.328;2023-05-10T22:21:08;13.20;99.90
70550;DHT22;58101;48.658;2.328;2023-05-10T22:23:33;13.20;99.90
70550;DHT22;58101;48.658;2.328;2023-05-10T22:26:02;13.10;99.90
70550;DHT22;58101;48.658;2.328;2023-05-10T22:28:29;13.10;99.90
70550;DHT22;58101;48.658;2.328;2023-05-10T22:30:54;13.20;99.90
70550;DHT22;58101;48.658;2.328;2023-05-10T22:33:20;13.20;99.90
70550;DHT22;58101;48.658;2.328;2023-05-10T22:35:46;13.10;99.90
70550;DHT22;58101;48.658;2.328;2023-05-10T22:38:12;13.10;99.90
70550;DHT22;58101;48.658;2.328;2023-05-10T22:40:37;13.20;99.90
70550;DHT22;58101;48.658;2.328;2023-05-10T22:43:03;13.10;99.90
70550;DHT22;58101;48.658;2.328;2023-05-10T22:45:29;13.10;99.90
70550;DHT22;58101;48.658;2.328;2023-05-10T22:47:55;13.10;99.90
70550;DHT22;58101;48.658;2.328;2023-05-10T22:50:21;13.20;99.90
70550;DHT22;58101;48.658;2.328;2023-05-10T22:52:47;13.00;99.90
70550;DHT22;58101;48.658;2.328;2023-05-10T22:55:12;13.10;99.90
70550;DHT22;58101;48.658;2.328;2023-05-10T22:57:38;13.20;99.90
70550;DHT22;58101;48.658;2.328;2023-05-10T23:00:04;13.10;99.90
70550;DHT22;58101;48.658;2.328;2023-05-10T23:02:30;13.10;99.90
70550;DHT22;58101;48.658;2.328;2023-05-10T23:04:56;13.10;99.90
70550;DHT22;58101;48.658;2.328;2023-05-10T23:07:22;13.10;99.90
70550;DHT22;58101;48.658;2.328;2023-05-10T23:09:48;13.10;99.90
70550;DHT22;58101;48.658;2.328;2023-05-10T23:12:14;13.10;99.90
70550;DHT22;58101;48.658;2.328;2023-05-10T23:14:40;13.00;99.90
70550;DHT22;58101;48.658;2.328;2023-05-10T23:17:06;13.00;99.90
70550;DHT22;58101;48.658;2.328;2023-05-10T23:19:32;13.10;99.90
70550;DHT22;58101;48.658;2.328;2023-05-10T23:21:58;13.00;99.90
70550;DHT22;58101;48.658;2.328;2023-05-10T23:24:26;13.00;99.90
70550;DHT22;58101;48.658;2.328;2023-05-10T23:26:52;13.10;99.90
70550;DHT22;58101;48.658;2.328;2023-05-10T23:29:17;13.10;99.90
70550;DHT22;58101;48.658;2.328;2023-05-10T23:31:43;13.10;99.90
70550;DHT22;58101;48.658;2.328;2023-05-10T23:34:11;13.10;99.90
70550;DHT22;58101;48.658;2.328;2023-05-10T23:36:37;13.10;99.90
70550;DHT22;58101;48.658;2.328;2023-05-10T23:39:03;13.00;99.90
70550;DHT22;58101;48.658;2.328;2023-05-10T23:41:29;13.10;99.90
70550;DHT22;58101;48.658;2.328;2023-05-10T23:43:54;13.00;99.90
70550;DHT22;58101;48.658;2.328;2023-05-10T23:46:20;13.00;99.90